sensor_id;sensor_type;location;lat;lon;timestamp;P1;durP1;ratioP1;P2;durP2;ratioP2
63943;SDS011;50121;51.218;7.664;2023-06-14T00:00:55;10.65;;;9.75;;
63943;SDS011;50121;51.218;7.664;2023-06-14T00:03:23;10.55;;;9.60;;
63943;SDS011;50121;51.218;7.664;2023-06-14T00:05:51;11.57;;;10.20;;
63943;SDS011;50121;51.218;7.664;2023-06-14T00:08:18;10.50;;;9.70;;
63943;SDS011;50121;51.218;7.664;2023-06-14T00:10:47;11.93;;;10.82;;
63943;SDS011;50121;51.218;7.664;2023-06-14T00:13:15;11.20;;;10.13;;
63943;SDS011;50121;51.218;7.664;2023-06-14T00:15:42;11.30;;;10.25;;
63943;SDS011;50121;51.218;7.664;2023-06-14T00:18:10;11.27;;;10.13;;
63943;SDS011;50121;51.218;7.664;2023-06-14T00:20:38;11.30;;;10.30;;
63943;SDS011;50121;51.218;7.664;2023-06-14T00:23:05;11.57;;;10.68;;
63943;SDS011;50121;51.218;7.664;2023-06-14T00:25:33;10.85;;;10.02;;
63943;SDS011;50121;51.218;7.664;2023-06-14T00:28:01;11.20;;;10.18;;
63943;SDS011;50121;51.218;7.664;2023-06-14T00:30:28;10.30;;;9.38;;
63943;SDS011;50121;51.218;7.664;2023-06-14T00:32:57;10.43;;;9.43;;
63943;SDS011;50121;51.218;7.664;2023-06-14T00:35:25;10.45;;;9.45;;
63943;SDS011;50121;51.218;7.664;2023-06-14T00:37:52;10.48;;;9.38;;
63943;SDS011;50121;51.218;7.664;2023-06-14T00:40:21;10.40;;;9.45;;
63943;SDS011;50121;51.218;7.664;2023-06-14T00:42:49;11.27;;;10.07;;
63943;SDS011;50121;51.218;7.664;2023-06-14T00:45:16;10.95;;;9.90;;
63943;SDS011;50121;51.218;7.664;2023-06-14T00:47:44;10.50;;;9.45;;
63943;SDS011;50121;51.218;7.664;2023-06-14T00:50:12;10.48;;;9.48;;
63943;SDS011;50121;51.218;7.664;2023-06-14T00:52:41;10.20;;;9.30;;
63943;SDS011;50121;51.218;7.664;2023-06-14T00:55:09;10.70;;;9.70;;
63943;SDS011;50121;51.218;7.664;2023-06-14T00:57:36;12.38;;;9.88;;
63943;SDS011;50121;51.218;7.664;2023-06-14T01:00:05;10.60;;;9.60;;
63943;SDS011;50121;51.218;7.664;2023-06-14T01:02:36;10.13;;;9.13;;
63943;SDS011;50121;51.218;7.664;2023-06-14T01:05:04;10.00;;;9.20;;
63943;SDS011;50121;51.218;7.664;2023-06-14T01:07:54;10.65;;;8.88;;
63943;SDS011;50121;51.218;7.664;2023-06-14T01:13:17;10.05;;;9.18;;
63943;SDS011;50121;51.218;7.664;2023-06-14T01:15:47;9.73;;;8.93;;
63943;SDS011;50121;51.218;7.664;2023-06-14T01:18:25;9.60;;;8.80;;
63943;SDS011;50121;51.218;7.664;2023-06-14T01:21:02;9.85;;;8.82;;
63943;SDS011;50121;51.218;7.664;2023-06-14T01:23:32;9.50;;;8.57;;
63943;SDS011;50121;51.218;7.664;2023-06-14T01:26:00;11.35;;;8.85;;
63943;SDS011;50121;51.218;7.664;2023-06-14T01:28:31;10.18;;;9.15;;
63943;SDS011;50121;51.218;7.664;2023-06-14T01:31:08;9.48;;;8.07;;
63943;SDS011;50121;51.218;7.664;2023-06-14T01:33:39;9.40;;;8.48;;
63943;SDS011;50121;51.218;7.664;2023-06-14T01:36:06;10.10;;;9.20;;
63943;SDS011;50121;51.218;7.664;2023-06-14T01:38:35;10.10;;;9.20;;
63943;SDS011;50121;51.218;7.664;2023-06-14T01:41:04;10.25;;;9.20;;
63943;SDS011;50121;51.218;7.664;2023-06-14T01:43:31;10.13;;;9.10;;
63943;SDS011;50121;51.218;7.664;2023-06-14T01:46:00;9.77;;;9.00;;
63943;SDS011;50121;51.218;7.664;2023-06-14T01:48:28;9.80;;;8.80;;
63943;SDS011;50121;51.218;7.664;2023-06-14T01:50:55;9.52;;;8.80;;
63943;SDS011;50121;51.218;7.664;2023-06-14T01:53:23;9.88;;;8.98;;
63943;SDS011;50121;51.218;7.664;2023-06-14T01:55:51;9.27;;;8.57;;
63943;SDS011;50121;51.218;7.664;2023-06-14T01:58:21;8.98;;;8.27;;
63943;SDS011;50121;51.218;7.664;2023-06-14T02:00:48;9.80;;;8.90;;
63943;SDS011;50121;51.218;7.664;2023-06-14T02:03:17;9.30;;;8.48;;
63943;SDS011;50121;51.218;7.664;2023-06-14T02:05:45;9.30;;;8.55;;
63943;SDS011;50121;51.218;7.664;2023-06-14T02:08:13;9.63;;;8.80;;
63943;SDS011;50121;51.218;7.664;2023-06-14T02:10:41;10.35;;;9.55;;
63943;SDS011;50121;51.218;7.664;2023-06-14T02:13:09;9.60;;;8.60;;
63943;SDS011;50121;51.218;7.664;2023-06-14T02:15:36;9.73;;;8.90;;
63943;SDS011;50121;51.218;7.664;2023-06-14T02:18:05;10.30;;;9.25;;
63943;SDS011;50121;51.218;7.664;2023-06-14T02:20:33;9.75;;;8.85;;
63943;SDS011;50121;51.218;7.664;2023-06-14T02:23:00;11.10;;;8.15;;
63943;SDS011;50121;51.218;7.664;2023-06-14T02:25:30;10.30;;;9.13;;
63943;SDS011;50121;51.218;7.664;2023-06-14T02:27:58;9.55;;;8.38;;
63943;SDS011;50121;51.218;7.664;2023-06-14T02:30:26;9.05;;;8.25;;
63943;SDS011;50121;51.218;7.664;2023-06-14T02:32:55;8.98;;;8.05;;
63943;SDS011;50121;51.218;7.664;2023-06-14T02:35:23;8.88;;;8.05;;
63943;SDS011;50121;51.218;7.664;2023-06-14T02:37:55;10.43;;;8.57;;
63943;SDS011;50121;51.218;7.664;2023-06-14T02:40:22;9.07;;;8.20;;
63943;SDS011;50121;51.218;7.664;2023-06-14T02:42:50;9.98;;;8.98;;
63943;SDS011;50121;51.218;7.664;2023-06-14T02:45:17;9.20;;;8.27;;
63943;SDS011;50121;51.218;7.664;2023-06-14T02:47:54;9.10;;;8.18;;
63943;SDS011;50121;51.218;7.664;2023-06-14T02:50:22;8.60;;;7.65;;
63943;SDS011;50121;51.218;7.664;2023-06-14T02:53:00;9.10;;;8.27;;
63943;SDS011;50121;51.218;7.664;2023-06-14T02:55:29;9.65;;;8.70;;
63943;SDS011;50121;51.218;7.664;2023-06-14T02:57:57;8.40;;;7.70;;
63943;SDS011;50121;51.218;7.664;2023-06-14T03:00:25;11.13;;;8.00;;
63943;SDS011;50121;51.218;7.664;2023-06-14T03:02:52;9.05;;;8.00;;
63943;SDS011;50121;51.218;7.664;2023-06-14T03:05:31;9.73;;;7.63;;
63943;SDS011;50121;51.218;7.664;2023-06-14T03:07:59;8.80;;;7.90;;
63943;SDS011;50121;51.218;7.664;2023-06-14T03:10:27;8.30;;;7.60;;
63943;SDS011;50121;51.218;7.664;2023-06-14T03:12:57;8.10;;;7.43;;
63943;SDS011;50121;51.218;7.664;2023-06-14T03:15:25;8.63;;;7.78;;
63943;SDS011;50121;51.218;7.664;2023-06-14T03:17:54;8.77;;;8.00;;
63943;SDS011;50121;51.218;7.664;2023-06-14T03:20:21;12.40;;;7.68;;
63943;SDS011;50121;51.218;7.664;2023-06-14T03:22:52;9.77;;;8.27;;
63943;SDS011;50121;51.218;7.664;2023-06-14T03:25:21;10.45;;;8.00;;
63943;SDS011;50121;51.218;7.664;2023-06-14T03:27:50;8.48;;;7.65;;
63943;SDS011;50121;51.218;7.664;2023-06-14T03:30:18;8.23;;;7.40;;
63943;SDS011;50121;51.218;7.664;2023-06-14T03:32:48;8.50;;;7.60;;
63943;SDS011;50121;51.218;7.664;2023-06-14T03:35:19;10.77;;;7.50;;
63943;SDS011;50121;51.218;7.664;2023-06-14T03:37:48;9.77;;;8.77;;
63943;SDS011;50121;51.218;7.664;2023-06-14T03:40:18;9.38;;;7.80;;
63943;SDS011;50121;51.218;7.664;2023-06-14T03:42:50;8.52;;;7.82;;
63943;SDS011;50121;51.218;7.664;2023-06-14T03:45:18;9.30;;;8.23;;
63943;SDS011;50121;51.218;7.664;2023-06-14T03:47:46;9.95;;;7.65;;
63943;SDS011;50121;51.218;7.664;2023-06-14T03:50:14;9.80;;;8.00;;
63943;SDS011;50121;51.218;7.664;2023-06-14T03:52:42;10.57;;;7.78;;
63943;SDS011;50121;51.218;7.664;2023-06-14T03:55:11;9.25;;;8.35;;
63943;SDS011;50121;51.218;7.664;2023-06-14T03:57:43;8.95;;;8.07;;
63943;SDS011;50121;51.218;7.664;2023-06-14T04:00:15;11.02;;;8.23;;
63943;SDS011;50121;51.218;7.664;2023-06-14T04:02:43;9.15;;;8.27;;
63943;SDS011;50121;51.218;7.664;2023-06-14T04:05:11;12.93;;;8.98;;
63943;SDS011;50121;51.218;7.664;2023-06-14T04:07:44;9.20;;;8.30;;
63943;SDS011;50121;51.218;7.664;2023-06-14T04:10:12;9.60;;;8.77;;
63943;SDS011;50121;51.218;7.664;2023-06-14T04:12:40;9.73;;;8.82;;
63943;SDS011;50121;51.218;7.664;2023-06-14T04:15:09;10.85;;;8.13;;
63943;SDS011;50121;51.218;7.664;2023-06-14T04:17:45;10.38;;;8.70;;
63943;SDS011;50121;51.218;7.664;2023-06-14T04:20:12;8.95;;;8.05;;
63943;SDS011;50121;51.218;7.664;2023-06-14T04:22:40;13.45;;;9.18;;
63943;SDS011;50121;51.218;7.664;2023-06-14T04:25:11;9.70;;;8.80;;
63943;SDS011;50121;51.218;7.664;2023-06-14T04:27:40;10.80;;;8.65;;
63943;SDS011;50121;51.218;7.664;2023-06-14T04:30:12;9.93;;;8.32;;
63943;SDS011;50121;51.218;7.664;2023-06-14T04:32:46;9.32;;;8.35;;
63943;SDS011;50121;51.218;7.664;2023-06-14T04:35:14;8.82;;;8.00;;
63943;SDS011;50121;51.218;7.664;2023-06-14T04:37:44;9.05;;;8.15;;
63943;SDS011;50121;51.218;7.664;2023-06-14T04:40:12;9.52;;;8.63;;
63943;SDS011;50121;51.218;7.664;2023-06-14T04:42:40;8.60;;;7.80;;
63943;SDS011;50121;51.218;7.664;2023-06-14T04:45:12;8.63;;;7.70;;
63943;SDS011;50121;51.218;7.664;2023-06-14T04:47:44;8.95;;;8.07;;
63943;SDS011;50121;51.218;7.664;2023-06-14T04:50:16;8.93;;;8.02;;
63943;SDS011;50121;51.218;7.664;2023-06-14T04:52:44;9.00;;;7.70;;
63943;SDS011;50121;51.218;7.664;2023-06-14T04:55:12;8.75;;;7.72;;
63943;SDS011;50121;51.218;7.664;2023-06-14T04:57:40;9.55;;;7.90;;
63943;SDS011;50121;51.218;7.664;2023-06-14T05:00:08;8.60;;;7.70;;
63943;SDS011;50121;51.218;7.664;2023-06-14T05:02:38;8.60;;;7.90;;
63943;SDS011;50121;51.218;7.664;2023-06-14T05:05:07;10.00;;;7.95;;
63943;SDS011;50121;51.218;7.664;2023-06-14T05:07:35;8.93;;;8.00;;
63943;SDS011;50121;51.218;7.664;2023-06-14T05:10:04;8.40;;;7.68;;
63943;SDS011;50121;51.218;7.664;2023-06-14T05:12:33;8.90;;;8.00;;
63943;SDS011;50121;51.218;7.664;2023-06-14T05:15:00;9.30;;;7.20;;
63943;SDS011;50121;51.218;7.664;2023-06-14T05:17:28;12.25;;;7.70;;
63943;SDS011;50121;51.218;7.664;2023-06-14T05:19:56;9.07;;;8.18;;
63943;SDS011;50121;51.218;7.664;2023-06-14T05:22:23;8.60;;;7.63;;
63943;SDS011;50121;51.218;7.664;2023-06-14T05:24:51;8.77;;;7.88;;
63943;SDS011;50121;51.218;7.664;2023-06-14T05:27:19;9.40;;;7.10;;
63943;SDS011;50121;51.218;7.664;2023-06-14T05:29:47;8.68;;;7.78;;
63943;SDS011;50121;51.218;7.664;2023-06-14T05:32:14;13.40;;;9.45;;
63943;SDS011;50121;51.218;7.664;2023-06-14T05:34:42;8.82;;;8.07;;
63943;SDS011;50121;51.218;7.664;2023-06-14T05:37:10;8.70;;;7.80;;
63943;SDS011;50121;51.218;7.664;2023-06-14T05:39:38;9.73;;;8.73;;
63943;SDS011;50121;51.218;7.664;2023-06-14T05:42:05;9.07;;;8.13;;
63943;SDS011;50121;51.218;7.664;2023-06-14T05:44:33;8.95;;;8.10;;
63943;SDS011;50121;51.218;7.664;2023-06-14T05:47:01;11.25;;;7.97;;
63943;SDS011;50121;51.218;7.664;2023-06-14T05:49:28;8.50;;;7.70;;
63943;SDS011;50121;51.218;7.664;2023-06-14T05:51:56;8.32;;;7.43;;
63943;SDS011;50121;51.218;7.664;2023-06-14T05:54:24;8.15;;;7.30;;
63943;SDS011;50121;51.218;7.664;2023-06-14T05:56:52;8.13;;;7.35;;
63943;SDS011;50121;51.218;7.664;2023-06-14T05:59:21;10.48;;;7.25;;
63943;SDS011;50121;51.218;7.664;2023-06-14T06:01:48;11.30;;;7.30;;
63943;SDS011;50121;51.218;7.664;2023-06-14T06:04:16;8.70;;;7.90;;
63943;SDS011;50121;51.218;7.664;2023-06-14T06:06:43;8.07;;;7.30;;
63943;SDS011;50121;51.218;7.664;2023-06-14T06:09:11;8.27;;;7.18;;
63943;SDS011;50121;51.218;7.664;2023-06-14T06:11:41;8.45;;;7.68;;
63943;SDS011;50121;51.218;7.664;2023-06-14T06:14:14;8.73;;;8.02;;
63943;SDS011;50121;51.218;7.664;2023-06-14T06:16:42;8.52;;;7.72;;
63943;SDS011;50121;51.218;7.664;2023-06-14T06:19:11;9.70;;;8.68;;
63943;SDS011;50121;51.218;7.664;2023-06-14T06:21:38;8.93;;;8.02;;
63943;SDS011;50121;51.218;7.664;2023-06-14T06:24:06;8.07;;;7.38;;
63943;SDS011;50121;51.218;7.664;2023-06-14T06:26:34;7.90;;;7.10;;
63943;SDS011;50121;51.218;7.664;2023-06-14T06:29:01;7.88;;;6.78;;
63943;SDS011;50121;51.218;7.664;2023-06-14T06:31:29;8.05;;;7.00;;
63943;SDS011;50121;51.218;7.664;2023-06-14T06:33:56;7.47;;;6.65;;
63943;SDS011;50121;51.218;7.664;2023-06-14T06:36:24;8.05;;;7.40;;
63943;SDS011;50121;51.218;7.664;2023-06-14T06:38:51;8.00;;;7.30;;
63943;SDS011;50121;51.218;7.664;2023-06-14T06:41:19;8.65;;;7.68;;
63943;SDS011;50121;51.218;7.664;2023-06-14T06:43:46;7.82;;;7.22;;
63943;SDS011;50121;51.218;7.664;2023-06-14T06:46:16;8.50;;;7.65;;
63943;SDS011;50121;51.218;7.664;2023-06-14T06:48:45;7.18;;;6.50;;
63943;SDS011;50121;51.218;7.664;2023-06-14T06:51:13;7.70;;;7.00;;
63943;SDS011;50121;51.218;7.664;2023-06-14T06:53:41;9.18;;;6.53;;
63943;SDS011;50121;51.218;7.664;2023-06-14T06:56:12;8.00;;;7.10;;
63943;SDS011;50121;51.218;7.664;2023-06-14T06:58:39;7.90;;;7.30;;
63943;SDS011;50121;51.218;7.664;2023-06-14T07:01:07;8.23;;;7.50;;
63943;SDS011;50121;51.218;7.664;2023-06-14T07:03:35;10.35;;;7.25;;
63943;SDS011;50121;51.218;7.664;2023-06-14T07:06:03;7.32;;;6.55;;
63943;SDS011;50121;51.218;7.664;2023-06-14T07:08:31;7.78;;;6.95;;
63943;SDS011;50121;51.218;7.664;2023-06-14T07:10:59;10.52;;;8.57;;
63943;SDS011;50121;51.218;7.664;2023-06-14T07:13:26;7.80;;;6.72;;
63943;SDS011;50121;51.218;7.664;2023-06-14T07:15:54;6.80;;;6.20;;
63943;SDS011;50121;51.218;7.664;2023-06-14T07:18:22;7.50;;;5.80;;
63943;SDS011;50121;51.218;7.664;2023-06-14T07:20:52;6.60;;;6.00;;
63943;SDS011;50121;51.218;7.664;2023-06-14T07:23:20;6.80;;;6.20;;
63943;SDS011;50121;51.218;7.664;2023-06-14T07:25:48;6.90;;;6.40;;
63943;SDS011;50121;51.218;7.664;2023-06-14T07:28:16;7.25;;;6.63;;
63943;SDS011;50121;51.218;7.664;2023-06-14T07:30:44;10.30;;;8.70;;
63943;SDS011;50121;51.218;7.664;2023-06-14T07:33:12;5.72;;;5.22;;
63943;SDS011;50121;51.218;7.664;2023-06-14T07:35:40;6.43;;;5.80;;
63943;SDS011;50121;51.218;7.664;2023-06-14T07:38:08;6.40;;;5.90;;
63943;SDS011;50121;51.218;7.664;2023-06-14T07:40:36;6.45;;;5.80;;
63943;SDS011;50121;51.218;7.664;2023-06-14T07:43:03;6.50;;;6.10;;
63943;SDS011;50121;51.218;7.664;2023-06-14T07:45:31;6.60;;;6.00;;
63943;SDS011;50121;51.218;7.664;2023-06-14T07:47:59;6.22;;;5.63;;
63943;SDS011;50121;51.218;7.664;2023-06-14T07:50:26;5.78;;;5.20;;
63943;SDS011;50121;51.218;7.664;2023-06-14T07:52:55;8.68;;;5.10;;
63943;SDS011;50121;51.218;7.664;2023-06-14T07:55:30;6.03;;;5.53;;
63943;SDS011;50121;51.218;7.664;2023-06-14T07:57:59;6.72;;;5.45;;
63943;SDS011;50121;51.218;7.664;2023-06-14T08:00:27;6.25;;;5.68;;
63943;SDS011;50121;51.218;7.664;2023-06-14T08:02:54;6.43;;;5.93;;
63943;SDS011;50121;51.218;7.664;2023-06-14T08:05:26;6.03;;;5.53;;
63943;SDS011;50121;51.218;7.664;2023-06-14T08:07:54;6.45;;;5.68;;
63943;SDS011;50121;51.218;7.664;2023-06-14T08:10:22;6.32;;;5.90;;
63943;SDS011;50121;51.218;7.664;2023-06-14T08:12:50;6.05;;;5.55;;
63943;SDS011;50121;51.218;7.664;2023-06-14T08:15:17;6.40;;;6.00;;
63943;SDS011;50121;51.218;7.664;2023-06-14T08:17:48;6.70;;;6.15;;
63943;SDS011;50121;51.218;7.664;2023-06-14T08:20:17;5.95;;;5.47;;
63943;SDS011;50121;51.218;7.664;2023-06-14T08:22:44;7.57;;;6.20;;
63943;SDS011;50121;51.218;7.664;2023-06-14T08:25:14;7.65;;;6.63;;
63943;SDS011;50121;51.218;7.664;2023-06-14T08:27:42;6.90;;;6.40;;
63943;SDS011;50121;51.218;7.664;2023-06-14T08:30:10;7.30;;;6.80;;
63943;SDS011;50121;51.218;7.664;2023-06-14T08:32:38;6.70;;;6.03;;
63943;SDS011;50121;51.218;7.664;2023-06-14T08:35:05;6.90;;;6.30;;
63943;SDS011;50121;51.218;7.664;2023-06-14T08:37:37;6.57;;;6.00;;
63943;SDS011;50121;51.218;7.664;2023-06-14T08:40:06;6.63;;;6.10;;
63943;SDS011;50121;51.218;7.664;2023-06-14T08:42:40;7.63;;;6.85;;
63943;SDS011;50121;51.218;7.664;2023-06-14T08:45:08;7.68;;;6.82;;
63943;SDS011;50121;51.218;7.664;2023-06-14T08:47:36;6.68;;;6.15;;
63943;SDS011;50121;51.218;7.664;2023-06-14T08:50:04;6.15;;;5.75;;
63943;SDS011;50121;51.218;7.664;2023-06-14T08:52:38;5.90;;;5.50;;
63943;SDS011;50121;51.218;7.664;2023-06-14T08:55:12;7.78;;;6.75;;
63943;SDS011;50121;51.218;7.664;2023-06-14T08:57:39;6.68;;;6.05;;
63943;SDS011;50121;51.218;7.664;2023-06-14T09:00:08;6.00;;;5.40;;
63943;SDS011;50121;51.218;7.664;2023-06-14T09:02:39;6.10;;;5.60;;
63943;SDS011;50121;51.218;7.664;2023-06-14T09:05:10;6.32;;;5.93;;
63943;SDS011;50121;51.218;7.664;2023-06-14T09:07:40;6.68;;;6.18;;
63943;SDS011;50121;51.218;7.664;2023-06-14T09:10:09;6.53;;;6.07;;
63943;SDS011;50121;51.218;7.664;2023-06-14T09:12:37;6.85;;;6.10;;
63943;SDS011;50121;51.218;7.664;2023-06-14T09:15:06;7.28;;;6.70;;
63943;SDS011;50121;51.218;7.664;2023-06-14T09:17:35;7.10;;;6.60;;
63943;SDS011;50121;51.218;7.664;2023-06-14T09:20:03;7.63;;;6.40;;
63943;SDS011;50121;51.218;7.664;2023-06-14T09:22:44;6.60;;;6.18;;
63943;SDS011;50121;51.218;7.664;2023-06-14T09:25:12;7.18;;;6.68;;
63943;SDS011;50121;51.218;7.664;2023-06-14T09:27:47;7.22;;;6.72;;
63943;SDS011;50121;51.218;7.664;2023-06-14T09:30:15;7.13;;;6.50;;
63943;SDS011;50121;51.218;7.664;2023-06-14T09:32:42;7.07;;;6.68;;
63943;SDS011;50121;51.218;7.664;2023-06-14T09:35:10;7.22;;;6.40;;
63943;SDS011;50121;51.218;7.664;2023-06-14T09:37:37;6.72;;;6.22;;
63943;SDS011;50121;51.218;7.664;2023-06-14T09:40:05;9.98;;;9.05;;
63943;SDS011;50121;51.218;7.664;2023-06-14T09:42:33;7.95;;;7.15;;
63943;SDS011;50121;51.218;7.664;2023-06-14T09:45:03;8.35;;;7.72;;
63943;SDS011;50121;51.218;7.664;2023-06-14T09:47:31;6.95;;;6.38;;
63943;SDS011;50121;51.218;7.664;2023-06-14T09:49:58;8.55;;;7.75;;
63943;SDS011;50121;51.218;7.664;2023-06-14T09:52:26;7.47;;;6.97;;
63943;SDS011;50121;51.218;7.664;2023-06-14T09:54:54;8.10;;;7.50;;
63943;SDS011;50121;51.218;7.664;2023-06-14T09:57:23;14.52;;;13.00;;
63943;SDS011;50121;51.218;7.664;2023-06-14T09:59:53;6.40;;;6.00;;
63943;SDS011;50121;51.218;7.664;2023-06-14T10:02:31;8.18;;;7.47;;
63943;SDS011;50121;51.218;7.664;2023-06-14T10:05:05;7.95;;;7.45;;
63943;SDS011;50121;51.218;7.664;2023-06-14T10:07:44;7.35;;;6.75;;
63943;SDS011;50121;51.218;7.664;2023-06-14T10:10:15;7.78;;;7.18;;
63943;SDS011;50121;51.218;7.664;2023-06-14T10:12:43;7.93;;;7.13;;
63943;SDS011;50121;51.218;7.664;2023-06-14T10:15:11;7.45;;;6.80;;
63943;SDS011;50121;51.218;7.664;2023-06-14T10:23:21;9.00;;;8.25;;
63943;SDS011;50121;51.218;7.664;2023-06-14T10:25:50;6.38;;;5.97;;
63943;SDS011;50121;51.218;7.664;2023-06-14T10:28:19;7.15;;;6.65;;
63943;SDS011;50121;51.218;7.664;2023-06-14T10:31:01;6.63;;;6.05;;
63943;SDS011;50121;51.218;7.664;2023-06-14T10:33:55;10.63;;;6.40;;
63943;SDS011;50121;51.218;7.664;2023-06-14T10:39:07;6.32;;;5.75;;
63943;SDS011;50121;51.218;7.664;2023-06-14T10:41:36;8.90;;;5.70;;
63943;SDS011;50121;51.218;7.664;2023-06-14T10:46:40;6.10;;;5.70;;
63943;SDS011;50121;51.218;7.664;2023-06-14T10:49:15;6.47;;;5.90;;
63943;SDS011;50121;51.218;7.664;2023-06-14T10:51:49;6.63;;;6.22;;
63943;SDS011;50121;51.218;7.664;2023-06-14T10:54:21;6.25;;;5.78;;
63943;SDS011;50121;51.218;7.664;2023-06-14T10:56:51;6.18;;;5.70;;
63943;SDS011;50121;51.218;7.664;2023-06-14T10:59:19;6.05;;;5.63;;
63943;SDS011;50121;51.218;7.664;2023-06-14T11:04:23;5.68;;;5.38;;
63943;SDS011;50121;51.218;7.664;2023-06-14T11:07:04;6.00;;;5.60;;
63943;SDS011;50121;51.218;7.664;2023-06-14T11:12:22;5.93;;;5.53;;
63943;SDS011;50121;51.218;7.664;2023-06-14T11:14:51;6.68;;;5.30;;
63943;SDS011;50121;51.218;7.664;2023-06-14T11:17:19;6.10;;;5.60;;
63943;SDS011;50121;51.218;7.664;2023-06-14T11:19:46;5.60;;;5.20;;
63943;SDS011;50121;51.218;7.664;2023-06-14T11:22:14;5.60;;;5.22;;
63943;SDS011;50121;51.218;7.664;2023-06-14T11:24:42;6.30;;;5.90;;
63943;SDS011;50121;51.218;7.664;2023-06-14T11:27:11;6.10;;;5.50;;
63943;SDS011;50121;51.218;7.664;2023-06-14T11:29:47;6.00;;;5.53;;
63943;SDS011;50121;51.218;7.664;2023-06-14T11:32:15;6.60;;;6.00;;
63943;SDS011;50121;51.218;7.664;2023-06-14T11:34:45;6.40;;;6.00;;
63943;SDS011;50121;51.218;7.664;2023-06-14T11:37:13;6.60;;;6.05;;
63943;SDS011;50121;51.218;7.664;2023-06-14T11:39:43;6.22;;;5.82;;
63943;SDS011;50121;51.218;7.664;2023-06-14T11:42:17;7.03;;;6.40;;
63943;SDS011;50121;51.218;7.664;2023-06-14T11:47:12;6.22;;;5.82;;
63943;SDS011;50121;51.218;7.664;2023-06-14T11:49:40;5.90;;;5.50;;
63943;SDS011;50121;51.218;7.664;2023-06-14T11:52:08;10.02;;;9.13;;
63943;SDS011;50121;51.218;7.664;2023-06-14T11:54:35;6.53;;;6.03;;
63943;SDS011;50121;51.218;7.664;2023-06-14T11:57:03;6.57;;;6.07;;
63943;SDS011;50121;51.218;7.664;2023-06-14T11:59:31;6.75;;;6.10;;
63943;SDS011;50121;51.218;7.664;2023-06-14T12:01:59;7.00;;;6.40;;
63943;SDS011;50121;51.218;7.664;2023-06-14T12:04:26;7.40;;;6.80;;
63943;SDS011;50121;51.218;7.664;2023-06-14T12:06:54;6.75;;;6.15;;
63943;SDS011;50121;51.218;7.664;2023-06-14T12:09:23;6.88;;;6.47;;
63943;SDS011;50121;51.218;7.664;2023-06-14T12:11:59;6.82;;;6.43;;
63943;SDS011;50121;51.218;7.664;2023-06-14T12:14:30;7.20;;;6.70;;
63943;SDS011;50121;51.218;7.664;2023-06-14T12:17:04;6.95;;;6.45;;
63943;SDS011;50121;51.218;7.664;2023-06-14T12:19:33;7.70;;;7.20;;
63943;SDS011;50121;51.218;7.664;2023-06-14T12:22:01;7.80;;;7.10;;
63943;SDS011;50121;51.218;7.664;2023-06-14T12:24:31;7.93;;;7.43;;
63943;SDS011;50121;51.218;7.664;2023-06-14T12:26:59;7.80;;;7.30;;
63943;SDS011;50121;51.218;7.664;2023-06-14T12:29:30;7.07;;;6.40;;
63943;SDS011;50121;51.218;7.664;2023-06-14T12:31:57;7.40;;;6.53;;
63943;SDS011;50121;51.218;7.664;2023-06-14T12:34:25;6.88;;;6.20;;
63943;SDS011;50121;51.218;7.664;2023-06-14T12:36:54;7.10;;;6.43;;
63943;SDS011;50121;51.218;7.664;2023-06-14T12:39:22;6.70;;;6.18;;
63943;SDS011;50121;51.218;7.664;2023-06-14T12:41:49;6.72;;;6.03;;
63943;SDS011;50121;51.218;7.664;2023-06-14T12:44:22;7.57;;;6.43;;
63943;SDS011;50121;51.218;7.664;2023-06-14T12:46:49;7.05;;;6.22;;
63943;SDS011;50121;51.218;7.664;2023-06-14T12:49:19;7.00;;;6.40;;
63943;SDS011;50121;51.218;7.664;2023-06-14T12:51:47;7.40;;;7.00;;
63943;SDS011;50121;51.218;7.664;2023-06-14T12:54:14;7.88;;;7.28;;
63943;SDS011;50121;51.218;7.664;2023-06-14T12:56:44;6.95;;;6.55;;
63943;SDS011;50121;51.218;7.664;2023-06-14T12:59:22;7.10;;;6.70;;
63943;SDS011;50121;51.218;7.664;2023-06-14T13:01:50;7.20;;;6.68;;
63943;SDS011;50121;51.218;7.664;2023-06-14T13:04:20;7.10;;;6.70;;
63943;SDS011;50121;51.218;7.664;2023-06-14T13:06:47;7.82;;;6.57;;
63943;SDS011;50121;51.218;7.664;2023-06-14T13:09:15;7.32;;;6.90;;
63943;SDS011;50121;51.218;7.664;2023-06-14T13:11:43;7.13;;;6.63;;
63943;SDS011;50121;51.218;7.664;2023-06-14T13:14:12;7.40;;;6.68;;
63943;SDS011;50121;51.218;7.664;2023-06-14T13:16:47;9.25;;;8.35;;
63943;SDS011;50121;51.218;7.664;2023-06-14T13:19:15;7.90;;;7.32;;
63943;SDS011;50121;51.218;7.664;2023-06-14T13:21:43;7.75;;;6.63;;
63943;SDS011;50121;51.218;7.664;2023-06-14T13:24:10;7.30;;;6.50;;
63943;SDS011;50121;51.218;7.664;2023-06-14T13:26:38;7.57;;;6.97;;
63943;SDS011;50121;51.218;7.664;2023-06-14T13:29:06;7.63;;;6.90;;
63943;SDS011;50121;51.218;7.664;2023-06-14T13:31:36;7.25;;;6.65;;
63943;SDS011;50121;51.218;7.664;2023-06-14T13:34:04;7.90;;;7.40;;
63943;SDS011;50121;51.218;7.664;2023-06-14T13:36:32;8.10;;;7.40;;
63943;SDS011;50121;51.218;7.664;2023-06-14T13:39:00;8.23;;;7.20;;
63943;SDS011;50121;51.218;7.664;2023-06-14T13:41:28;7.78;;;7.22;;
63943;SDS011;50121;51.218;7.664;2023-06-14T13:44:01;8.18;;;7.68;;
63943;SDS011;50121;51.218;7.664;2023-06-14T13:46:32;7.35;;;6.72;;
63943;SDS011;50121;51.218;7.664;2023-06-14T13:49:00;7.85;;;7.05;;
63943;SDS011;50121;51.218;7.664;2023-06-14T13:51:28;8.27;;;7.45;;
63943;SDS011;50121;51.218;7.664;2023-06-14T13:53:56;8.90;;;7.35;;
63943;SDS011;50121;51.218;7.664;2023-06-14T13:56:23;8.05;;;7.45;;
63943;SDS011;50121;51.218;7.664;2023-06-14T13:58:51;8.63;;;7.88;;
63943;SDS011;50121;51.218;7.664;2023-06-14T14:01:18;8.18;;;7.57;;
63943;SDS011;50121;51.218;7.664;2023-06-14T14:03:47;7.80;;;7.30;;
63943;SDS011;50121;51.218;7.664;2023-06-14T14:06:16;7.20;;;6.70;;
63943;SDS011;50121;51.218;7.664;2023-06-14T14:08:43;9.27;;;7.10;;
63943;SDS011;50121;51.218;7.664;2023-06-14T14:11:11;10.18;;;9.20;;
63943;SDS011;50121;51.218;7.664;2023-06-14T14:13:39;8.05;;;7.32;;
63943;SDS011;50121;51.218;7.664;2023-06-14T14:16:07;7.22;;;6.78;;
63943;SDS011;50121;51.218;7.664;2023-06-14T14:18:34;8.00;;;7.32;;
63943;SDS011;50121;51.218;7.664;2023-06-14T14:21:02;7.97;;;7.35;;
63943;SDS011;50121;51.218;7.664;2023-06-14T14:23:30;8.52;;;7.80;;
63943;SDS011;50121;51.218;7.664;2023-06-14T14:25:58;9.95;;;7.38;;
63943;SDS011;50121;51.218;7.664;2023-06-14T14:28:30;8.05;;;7.25;;
63943;SDS011;50121;51.218;7.664;2023-06-14T14:30:59;7.80;;;7.15;;
63943;SDS011;50121;51.218;7.664;2023-06-14T14:33:26;7.10;;;6.60;;
63943;SDS011;50121;51.218;7.664;2023-06-14T14:35:54;8.40;;;7.60;;
63943;SDS011;50121;51.218;7.664;2023-06-14T14:38:22;7.72;;;7.22;;
63943;SDS011;50121;51.218;7.664;2023-06-14T14:40:50;7.50;;;7.00;;
63943;SDS011;50121;51.218;7.664;2023-06-14T14:43:17;7.38;;;6.78;;
63943;SDS011;50121;51.218;7.664;2023-06-14T14:45:45;7.75;;;7.25;;
63943;SDS011;50121;51.218;7.664;2023-06-14T14:48:13;7.43;;;6.90;;
63943;SDS011;50121;51.218;7.664;2023-06-14T14:50:41;7.50;;;7.00;;
63943;SDS011;50121;51.218;7.664;2023-06-14T14:53:08;6.95;;;6.50;;
63943;SDS011;50121;51.218;7.664;2023-06-14T14:55:36;7.95;;;6.60;;
63943;SDS011;50121;51.218;7.664;2023-06-14T14:58:04;7.80;;;7.20;;
63943;SDS011;50121;51.218;7.664;2023-06-14T15:00:33;9.18;;;7.45;;
63943;SDS011;50121;51.218;7.664;2023-06-14T15:03:01;9.15;;;7.53;;
63943;SDS011;50121;51.218;7.664;2023-06-14T15:05:28;7.95;;;7.30;;
63943;SDS011;50121;51.218;7.664;2023-06-14T15:07:56;7.80;;;7.28;;
63943;SDS011;50121;51.218;7.664;2023-06-14T15:10:24;7.90;;;7.18;;
63943;SDS011;50121;51.218;7.664;2023-06-14T15:12:51;7.95;;;7.22;;
63943;SDS011;50121;51.218;7.664;2023-06-14T15:15:19;7.28;;;6.53;;
63943;SDS011;50121;51.218;7.664;2023-06-14T15:17:46;7.28;;;6.68;;